Time;durP1;ratioP1;P1;durP2;ratioP2;P2;SDS_P1;SDS_P2;PMS_P1;PMS_P2;Temp;Humidity;BMP_temperature;BMP_pressure;BME280_temperature;BME280_humidity;BME280_pressure;Samples;Min_cycle;Max_cycle;Signal;HPM_P1;HPM_P2
2021/08/16 00:00:57;;;;;;;2.20;1.20;;;21.90;62.30;;;;;;20835099;28;20450;-19
2021/08/16 00:10:57;;;;;;;2.03;1.23;;;21.90;62.50;;;;;;20834768;28;20878;-19
2021/08/16 00:20:58;;;;;;;2.10;1.35;;;21.90;62.50;;;;;;20832542;28;20056;-22
2021/08/16 00:30:58;;;;;;;2.33;1.37;;;21.90;62.50;;;;;;20831996;28;20044;-20
2021/08/16 00:41:00;;;;;;;1.98;1.38;;;21.90;62.60;;;;;;20831039;28;20509;-20
2021/08/16 00:51:00;;;;;;;3.08;1.60;;;21.90;62.50;;;;;;20832493;28;20045;-22
2021/08/16 01:01:02;;;;;;;1.88;1.17;;;21.90;62.60;;;;;;20830163;28;20072;-21
2021/08/16 01:11:03;;;;;;;2.60;1.50;;;21.90;62.60;;;;;;20828695;28;20042;-21
2021/08/16 01:21:08;;;;;;;3.13;1.30;;;21.90;62.60;;;;;;20828759;28;20264;-19
2021/08/16 01:31:10;;;;;;;2.15;1.33;;;21.90;62.60;;;;;;20827234;28;20057;-20
2021/08/16 01:41:11;;;;;;;2.05;1.38;;;21.90;62.60;;;;;;20825647;28;20285;-20
2021/08/16 01:51:11;;;;;;;2.07;1.37;;;21.90;62.60;;;;;;20824256;28;20033;-20
2021/08/16 02:01:12;;;;;;;2.30;1.42;;;21.90;62.60;;;;;;20824526;28;20532;-20
2021/08/16 02:11:12;;;;;;;2.28;1.58;;;21.90;62.70;;;;;;20822777;28;20039;-20
2021/08/16 02:21:13;;;;;;;2.42;1.60;;;21.90;62.60;;;;;;20823199;28;20033;-19
2021/08/16 02:31:14;;;;;;;2.08;1.25;;;21.90;62.60;;;;;;20827166;28;20053;-20
2021/08/16 02:41:14;;;;;;;2.08;1.17;;;21.90;62.60;;;;;;20823317;28;20175;-20
2021/08/16 02:51:15;;;;;;;2.50;1.38;;;21.90;62.70;;;;;;20821877;28;20033;-20
2021/08/16 03:01:15;;;;;;;2.20;1.20;;;21.90;63.10;;;;;;20820426;28;20049;-21
2021/08/16 03:11:16;;;;;;;2.17;1.33;;;21.90;62.60;;;;;;20822298;28;20115;-22
2021/08/16 03:21:16;;;;;;;2.55;1.52;;;21.90;62.60;;;;;;20835532;28;20037;-19
2021/08/16 03:31:17;;;;;;;1.92;1.23;;;21.90;62.60;;;;;;20846369;28;20390;-21
2021/08/16 03:41:18;;;;;;;2.37;1.70;;;21.90;62.60;;;;;;20846284;28;20029;-21
2021/08/16 03:51:18;;;;;;;2.20;1.37;;;21.90;62.60;;;;;;20845534;28;20034;-20
2021/08/16 04:01:19;;;;;;;3.17;1.33;;;21.90;62.60;;;;;;20845291;28;20037;-21
2021/08/16 04:11:20;;;;;;;1.88;1.15;;;21.90;62.70;;;;;;20844266;28;20128;-21
2021/08/16 04:21:20;;;;;;;2.42;1.50;;;21.90;62.70;;;;;;20844060;28;20395;-21
2021/08/16 04:31:21;;;;;;;2.00;1.30;;;21.90;62.70;;;;;;20838652;28;20497;-20
2021/08/16 04:41:22;;;;;;;3.53;1.27;;;21.90;62.70;;;;;;20830961;28;21065;-20
2021/08/16 04:51:22;;;;;;;1.92;1.08;;;21.90;62.70;;;;;;20830816;28;20037;-21
2021/08/16 05:01:23;;;;;;;2.30;1.35;;;21.90;62.70;;;;;;20830326;28;20099;-20
2021/08/16 05:11:25;;;;;;;2.28;1.50;;;21.80;62.60;;;;;;20830332;28;20033;-21
2021/08/16 05:21:26;;;;;;;2.40;1.63;;;21.90;62.70;;;;;;20830914;28;20147;-22
2021/08/16 05:31:27;;;;;;;2.60;1.33;;;21.80;62.60;;;;;;20828265;28;20037;-20
2021/08/16 05:41:27;;;;;;;1.85;1.10;;;21.90;62.60;;;;;;20825468;28;20092;-21
2021/08/16 05:51:28;;;;;;;2.38;1.08;;;21.90;62.70;;;;;;20824628;28;20057;-21
2021/08/16 06:01:28;;;;;;;2.83;1.73;;;21.90;62.70;;;;;;20823495;28;20108;-20
2021/08/16 06:11:29;;;;;;;2.10;1.30;;;21.90;62.60;;;;;;20823323;28;20064;-19
2021/08/16 06:21:31;;;;;;;2.10;1.25;;;21.90;62.60;;;;;;20822850;28;20108;-20
2021/08/16 06:31:32;;;;;;;3.63;2.15;;;21.90;62.50;;;;;;20822896;28;20429;-21
2021/08/16 06:41:33;;;;;;;3.53;1.30;;;21.90;62.50;;;;;;20822296;28;20056;-21
2021/08/16 06:51:33;;;;;;;2.22;1.23;;;21.90;62.50;;;;;;20820595;28;20095;-21
2021/08/16 07:01:34;;;;;;;2.53;1.45;;;21.90;62.50;;;;;;20828890;28;20512;-22
2021/08/16 07:11:34;;;;;;;2.53;1.70;;;21.90;62.50;;;;;;20824400;28;20044;-21
2021/08/16 07:21:38;;;;;;;2.53;1.42;;;21.90;62.60;;;;;;20821091;28;20498;-27
2021/08/16 07:31:39;;;;;;;2.70;1.95;;;21.90;62.60;;;;;;20827157;28;20042;-21
2021/08/16 07:41:39;;;;;;;2.80;1.83;;;21.90;62.70;;;;;;20819903;28;20033;-21
2021/08/16 07:51:40;;;;;;;2.40;1.73;;;21.90;62.70;;;;;;20816910;28;20340;-21
2021/08/16 08:01:40;;;;;;;2.53;1.85;;;21.90;62.70;;;;;;20820857;28;20564;-21
2021/08/16 08:11:41;;;;;;;2.78;1.83;;;21.90;62.70;;;;;;20831419;28;20049;-21
2021/08/16 08:21:42;;;;;;;2.85;1.65;;;21.90;62.50;;;;;;20832044;28;20025;-21
2021/08/16 08:31:42;;;;;;;2.13;1.45;;;21.90;62.60;;;;;;20836193;28;20067;-21
2021/08/16 08:41:46;;;;;;;2.30;1.60;;;22.00;62.60;;;;;;20830398;28;20061;-21
2021/08/16 08:51:46;;;;;;;3.05;2.03;;;22.00;62.70;;;;;;20832409;28;20499;-20
2021/08/16 09:01:58;;;;;;;4.68;1.95;;;22.00;62.80;;;;;;20833818;28;20041;-21
2021/08/16 09:11:59;;;;;;;3.63;1.88;;;22.00;62.90;;;;;;20832528;28;20072;-21
2021/08/16 09:22:06;;;;;;;3.42;2.10;;;22.00;62.70;;;;;;20828475;28;20113;-21
2021/08/16 09:32:07;;;;;;;2.90;1.98;;;22.00;62.80;;;;;;20829934;28;20474;-21
2021/08/16 09:42:07;;;;;;;3.60;2.38;;;22.00;62.70;;;;;;20829412;28;20041;-20
2021/08/16 09:52:10;;;;;;;2.75;1.77;;;22.00;62.80;;;;;;20825057;28;20037;-20
2021/08/16 10:02:13;;;;;;;3.47;2.42;;;22.00;62.70;;;;;;20824227;28;20128;-20
2021/08/16 10:12:13;;;;;;;2.60;2.00;;;22.00;62.80;;;;;;20821968;28;20048;-21
2021/08/16 10:22:16;;;;;;;2.95;2.08;;;21.90;62.60;;;;;;20823888;28;20034;-21
2021/08/16 10:32:18;;;;;;;2.80;1.95;;;21.90;62.80;;;;;;20821994;28;20034;-20
2021/08/16 10:42:31;;;;;;;4.70;2.83;;;21.90;62.60;;;;;;20822854;28;20053;-20
2021/08/16 10:52:32;;;;;;;2.85;2.40;;;21.90;62.60;;;;;;20821153;28;20046;-21
2021/08/16 11:02:33;;;;;;;3.15;2.67;;;22.00;62.80;;;;;;20821009;28;20029;-21
2021/08/16 11:12:42;;;;;;;3.10;2.58;;;22.00;62.70;;;;;;20913850;23;20053;-20
2021/08/16 11:22:53;;;;;;;3.03;2.40;;;22.00;62.60;;;;;;20901868;28;20038;-21
2021/08/16 11:32:54;;;;;;;3.40;2.40;;;21.90;62.60;;;;;;20902887;28;20056;-21
2021/08/16 11:42:54;;;;;;;3.30;2.45;;;22.00;62.70;;;;;;20910057;28;20060;-21
2021/08/16 11:52:56;;;;;;;3.63;2.28;;;21.90;62.60;;;;;;20917018;28;20071;-21
2021/08/16 12:02:58;;;;;;;3.80;2.28;;;21.90;63.10;;;;;;20916547;28;20033;-22
2021/08/16 12:13:02;;;;;;;3.25;2.72;;;22.00;62.60;;;;;;20915098;28;20574;-21
2021/08/16 12:23:02;;;;;;;3.35;2.72;;;22.00;62.60;;;;;;20916929;28;20069;-22
2021/08/16 12:33:11;;;;;;;2.85;2.53;;;21.90;62.60;;;;;;20915415;28;20040;-21
2021/08/16 12:43:11;;;;;;;3.67;2.53;;;21.90;62.60;;;;;;20913408;28;20044;-21
2021/08/16 12:53:12;;;;;;;2.90;2.25;;;21.90;62.60;;;;;;20912143;28;20497;-21
2021/08/16 13:03:13;;;;;;;2.50;2.20;;;21.90;62.60;;;;;;20911738;28;20060;-21
2021/08/16 13:13:16;;;;;;;2.92;2.55;;;21.90;62.70;;;;;;20910426;28;20396;-22
2021/08/16 13:23:17;;;;;;;3.13;1.73;;;21.90;62.70;;;;;;20910360;28;20037;-21
2021/08/16 13:33:18;;;;;;;2.45;1.90;;;21.90;62.60;;;;;;20908131;28;20043;-21
2021/08/16 13:43:18;;;;;;;2.78;2.33;;;21.90;62.60;;;;;;20911855;28;20033;-22
2021/08/16 13:53:19;;;;;;;2.37;1.90;;;21.90;62.60;;;;;;20913794;28;20029;-21
2021/08/16 14:03:20;;;;;;;2.58;1.98;;;21.90;62.60;;;;;;20906441;28;20056;-21
2021/08/16 14:13:21;;;;;;;2.05;1.52;;;21.90;62.60;;;;;;20905783;28;20110;-21
2021/08/16 14:23:22;;;;;;;3.50;3.00;;;21.90;62.70;;;;;;20904968;28;20037;-21
2021/08/16 14:33:23;;;;;;;3.17;2.47;;;21.80;62.60;;;;;;20905736;28;20044;-21
2021/08/16 14:43:23;;;;;;;2.83;1.70;;;21.90;62.70;;;;;;20906223;28;20086;-21
2021/08/16 14:53:30;;;;;;;2.95;2.20;;;21.80;62.60;;;;;;20907110;28;20032;-21
2021/08/16 15:03:30;;;;;;;2.45;1.85;;;21.80;62.60;;;;;;20917752;28;20049;-21
2021/08/16 15:13:33;;;;;;;2.97;2.25;;;21.80;62.60;;;;;;20908120;28;20036;-21
2021/08/16 15:23:34;;;;;;;3.05;2.00;;;21.80;62.60;;;;;;20905412;28;20033;-21
2021/08/16 15:33:36;;;;;;;3.38;1.75;;;21.80;62.60;;;;;;20906828;28;20037;-20
2021/08/16 15:43:36;;;;;;;2.83;1.77;;;21.80;62.60;;;;;;20906591;28;20444;-19
2021/08/16 15:53:38;;;;;;;3.13;2.00;;;21.80;62.60;;;;;;20901994;28;20427;-20
2021/08/16 16:03:40;;;;;;;4.18;2.17;;;21.80;62.60;;;;;;20900366;28;20021;-20
2021/08/16 16:13:40;;;;;;;2.72;1.73;;;21.80;62.60;;;;;;20900602;28;20045;-20
2021/08/16 16:23:41;;;;;;;3.60;2.17;;;21.80;62.70;;;;;;20903505;28;20071;-20
2021/08/16 16:33:42;;;;;;;3.25;1.52;;;21.80;62.70;;;;;;20913511;28;20041;-20
2021/08/16 16:43:43;;;;;;;2.25;1.58;;;21.80;62.60;;;;;;20913508;28;20048;-20
2021/08/16 16:53:44;;;;;;;2.70;1.67;;;21.80;62.60;;;;;;20911981;28;20072;-19
2021/08/16 17:03:44;;;;;;;2.60;1.48;;;21.70;62.60;;;;;;20917085;28;20858;-20
2021/08/16 17:13:45;;;;;;;2.15;1.65;;;21.80;62.60;;;;;;20868239;23;20049;-22
2021/08/16 17:23:46;;;;;;;1.90;1.47;;;21.80;62.60;;;;;;20833417;28;20045;-22
2021/08/16 17:33:47;;;;;;;2.35;1.67;;;21.80;62.60;;;;;;20837632;28;21031;-21
2021/08/16 17:43:48;;;;;;;3.40;1.70;;;21.70;62.50;;;;;;20835410;28;20091;-21
2021/08/16 17:53:48;;;;;;;3.00;1.67;;;21.80;62.60;;;;;;20826268;28;20077;-20
2021/08/16 18:03:49;;;;;;;2.50;1.70;;;21.70;62.50;;;;;;20825093;28;20084;-21
2021/08/16 18:13:49;;;;;;;3.72;1.80;;;21.80;62.60;;;;;;20823558;28;20044;-22
2021/08/16 18:23:50;;;;;;;2.08;1.65;;;21.80;62.60;;;;;;20822763;28;20045;-20
2021/08/16 18:33:51;;;;;;;2.50;1.63;;;21.70;62.50;;;;;;20822747;28;20112;-22
2021/08/16 18:43:51;;;;;;;2.75;1.63;;;21.80;62.60;;;;;;20827268;28;20045;-24
2021/08/16 18:53:52;;;;;;;2.60;1.80;;;21.70;62.60;;;;;;20837976;28;20041;-22
2021/08/16 19:03:53;;;;;;;3.15;1.20;;;21.70;62.50;;;;;;20823457;28;20041;-21
2021/08/16 19:13:53;;;;;;;4.22;1.95;;;21.70;62.60;;;;;;20822254;28;20107;-21
2021/08/16 19:23:54;;;;;;;2.83;1.52;;;21.70;62.50;;;;;;20819216;28;20030;-22
2021/08/16 19:33:55;;;;;;;4.57;2.10;;;21.70;62.50;;;;;;20821943;28;20044;-21
2021/08/16 19:43:57;;;;;;;2.70;1.27;;;21.70;62.50;;;;;;20818456;28;20491;-20
2021/08/16 19:53:59;;;;;;;2.78;1.60;;;21.70;62.50;;;;;;20818961;28;20033;-21
2021/08/16 20:04:01;;;;;;;3.30;2.25;;;21.70;62.40;;;;;;20828816;28;20405;-22
2021/08/16 20:14:02;;;;;;;1.83;1.33;;;21.70;62.40;;;;;;20837960;28;20049;-20
2021/08/16 20:24:04;;;;;;;2.10;1.17;;;21.60;62.30;;;;;;20836576;28;20153;-21
2021/08/16 20:34:05;;;;;;;2.65;1.80;;;21.70;62.40;;;;;;20832176;28;20083;-21
2021/08/16 20:44:05;;;;;;;3.22;1.73;;;21.60;62.30;;;;;;20831163;28;20045;-21
2021/08/16 20:54:06;;;;;;;3.60;1.60;;;21.60;62.30;;;;;;20830440;28;20551;-21
2021/08/16 21:04:07;;;;;;;3.15;1.60;;;21.60;62.30;;;;;;20829166;28;20511;-21
2021/08/16 21:14:08;;;;;;;2.05;1.13;;;21.60;62.20;;;;;;20827646;28;20096;-20
2021/08/16 21:24:09;;;;;;;2.05;1.13;;;21.60;62.20;;;;;;20827626;28;20037;-21
2021/08/16 21:34:09;;;;;;;3.13;1.48;;;21.60;62.20;;;;;;20829036;28;20084;-21
2021/08/16 21:44:10;;;;;;;2.45;1.20;;;21.60;62.20;;;;;;20824781;28;20441;-21
2021/08/16 21:54:10;;;;;;;2.20;1.23;;;21.60;62.10;;;;;;20826123;28;20057;-21
2021/08/16 22:04:11;;;;;;;1.90;1.15;;;21.60;62.10;;;;;;20824839;28;20053;-21
2021/08/16 22:14:11;;;;;;;1.65;1.00;;;21.60;62.10;;;;;;20823382;28;20052;-21
2021/08/16 22:24:12;;;;;;;2.85;1.05;;;21.50;62.00;;;;;;20822427;28;20083;-21
2021/08/16 22:34:12;;;;;;;3.88;1.40;;;21.50;62.00;;;;;;20822284;28;20034;-21
2021/08/16 22:44:13;;;;;;;1.50;0.90;;;21.50;62.00;;;;;;20823535;28;20033;-21
2021/08/16 22:54:14;;;;;;;1.95;1.25;;;21.50;62.00;;;;;;20823339;28;20049;-21
2021/08/16 23:04:17;;;;;;;2.60;1.10;;;21.50;61.90;;;;;;20820054;28;20037;-20
2021/08/16 23:14:18;;;;;;;2.17;1.17;;;21.50;61.90;;;;;;20820865;28;20038;-21
2021/08/16 23:24:19;;;;;;;3.23;0.93;;;21.50;61.90;;;;;;20822322;28;20068;-21
2021/08/16 23:45:24;;;;;;;1.90;1.15;;;21.50;61.90;;;;;;20837829;28;20037;-21
2021/08/16 23:55:25;;;;;;;1.98;1.17;;;21.40;61.80;;;;;;20832661;28;20049;-22
